sensor_id;sensor_type;location;lat;lon;timestamp;pressure;altitude;pressure_sealevel;temperature;humidity
68822;BME280;55834;50.870;4.606;2023-11-19T00:01:51;100410.00;;;11.47;72.36
68822;BME280;55834;50.870;4.606;2023-11-19T00:04:16;100400.91;;;11.78;71.60
68822;BME280;55834;50.870;4.606;2023-11-19T00:06:42;100409.53;;;11.11;73.19
68822;BME280;55834;50.870;4.606;2023-11-19T00:09:07;100406.63;;;11.18;72.79
68822;BME280;55834;50.870;4.606;2023-11-19T00:11:33;100415.94;;;11.52;71.39
68822;BME280;55834;50.870;4.606;2023-11-19T00:13:58;100411.50;;;11.78;71.23
68822;BME280;55834;50.870;4.606;2023-11-19T00:16:24;100413.41;;;11.74;70.86
68822;BME280;55834;50.870;4.606;2023-11-19T00:18:49;100393.47;;;11.65;70.77
68822;BME280;55834;50.870;4.606;2023-11-19T00:21:15;100402.06;;;10.73;73.91
68822;BME280;55834;50.870;4.606;2023-11-19T00:23:40;100397.16;;;11.36;73.19
68822;BME280;55834;50.870;4.606;2023-11-19T00:26:05;100389.41;;;11.32;71.77
68822;BME280;55834;50.870;4.606;2023-11-19T00:28:32;100390.94;;;11.37;72.02
68822;BME280;55834;50.870;4.606;2023-11-19T00:30:58;100394.34;;;10.67;72.99
68822;BME280;55834;50.870;4.606;2023-11-19T00:33:24;100399.88;;;10.86;73.92
68822;BME280;55834;50.870;4.606;2023-11-19T00:35:49;100389.75;;;11.46;72.28
68822;BME280;55834;50.870;4.606;2023-11-19T00:38:15;100395.09;;;10.71;73.24
68822;BME280;55834;50.870;4.606;2023-11-19T00:40:41;100383.34;;;11.29;72.22
68822;BME280;55834;50.870;4.606;2023-11-19T00:43:06;100387.19;;;10.96;72.46
68822;BME280;55834;50.870;4.606;2023-11-19T00:45:32;100382.47;;;11.52;71.75
68822;BME280;55834;50.870;4.606;2023-11-19T00:47:58;100381.34;;;11.11;71.86
68822;BME280;55834;50.870;4.606;2023-11-19T00:50:25;100390.25;;;10.83;72.49
68822;BME280;55834;50.870;4.606;2023-11-19T00:52:50;100375.97;;;10.89;72.81
68822;BME280;55834;50.870;4.606;2023-11-19T00:55:16;100365.28;;;11.41;71.54
68822;BME280;55834;50.870;4.606;2023-11-19T00:57:43;100372.31;;;10.93;72.05
68822;BME280;55834;50.870;4.606;2023-11-19T01:00:09;100380.59;;;10.57;74.34
68822;BME280;55834;50.870;4.606;2023-11-19T01:02:44;100386.84;;;10.55;73.83
68822;BME280;55834;50.870;4.606;2023-11-19T01:05:10;100371.22;;;10.49;75.07
68822;BME280;55834;50.870;4.606;2023-11-19T01:07:39;100374.19;;;10.90;73.21
68822;BME280;55834;50.870;4.606;2023-11-19T01:10:05;100368.13;;;11.35;71.59
68822;BME280;55834;50.870;4.606;2023-11-19T01:12:30;100367.56;;;11.03;71.10
68822;BME280;55834;50.870;4.606;2023-11-19T01:14:56;100362.69;;;11.39;70.26
68822;BME280;55834;50.870;4.606;2023-11-19T01:17:23;100360.13;;;10.64;72.16
68822;BME280;55834;50.870;4.606;2023-11-19T01:19:48;100371.44;;;10.93;72.75
68822;BME280;55834;50.870;4.606;2023-11-19T01:22:15;100372.41;;;10.90;72.83
68822;BME280;55834;50.870;4.606;2023-11-19T01:24:40;100366.47;;;11.08;71.55
68822;BME280;55834;50.870;4.606;2023-11-19T01:27:05;100371.16;;;11.72;70.10
68822;BME280;55834;50.870;4.606;2023-11-19T01:29:31;100369.13;;;11.79;68.45
68822;BME280;55834;50.870;4.606;2023-11-19T01:31:56;100363.38;;;11.21;70.10
68822;BME280;55834;50.870;4.606;2023-11-19T01:34:22;100368.75;;;10.69;72.18
68822;BME280;55834;50.870;4.606;2023-11-19T01:36:47;100354.94;;;11.35;70.79
68822;BME280;55834;50.870;4.606;2023-11-19T01:39:14;100356.56;;;11.39;71.72
68822;BME280;55834;50.870;4.606;2023-11-19T01:41:41;100355.44;;;10.97;71.54
68822;BME280;55834;50.870;4.606;2023-11-19T01:44:06;100366.69;;;11.02;71.12
68822;BME280;55834;50.870;4.606;2023-11-19T01:46:32;100358.97;;;10.96;71.52
68822;BME280;55834;50.870;4.606;2023-11-19T01:48:58;100348.97;;;11.29;70.56
68822;BME280;55834;50.870;4.606;2023-11-19T01:51:24;100341.81;;;11.08;71.09
68822;BME280;55834;50.870;4.606;2023-11-19T01:53:50;100359.88;;;11.20;70.29
68822;BME280;55834;50.870;4.606;2023-11-19T01:56:16;100361.59;;;11.45;69.96
68822;BME280;55834;50.870;4.606;2023-11-19T01:58:43;100374.00;;;11.19;69.36
68822;BME280;55834;50.870;4.606;2023-11-19T02:01:10;100373.59;;;11.06;69.76
68822;BME280;55834;50.870;4.606;2023-11-19T02:03:36;100370.84;;;11.10;70.35
68822;BME280;55834;50.870;4.606;2023-11-19T02:06:03;100377.66;;;10.92;70.11
68822;BME280;55834;50.870;4.606;2023-11-19T02:08:29;100363.66;;;11.13;70.13
68822;BME280;55834;50.870;4.606;2023-11-19T02:10:55;100369.25;;;10.80;70.43
68822;BME280;55834;50.870;4.606;2023-11-19T02:13:24;100369.41;;;10.51;69.84
68822;BME280;55834;50.870;4.606;2023-11-19T02:15:50;100358.84;;;10.76;69.46
68822;BME280;55834;50.870;4.606;2023-11-19T02:18:27;100354.25;;;11.06;68.07
68822;BME280;55834;50.870;4.606;2023-11-19T02:20:54;100364.16;;;10.49;70.84
68822;BME280;55834;50.870;4.606;2023-11-19T02:23:20;100356.41;;;10.95;68.79
68822;BME280;55834;50.870;4.606;2023-11-19T02:28:19;100366.16;;;10.41;70.06
68822;BME280;55834;50.870;4.606;2023-11-19T02:30:44;100358.88;;;10.23;70.70
68822;BME280;55834;50.870;4.606;2023-11-19T02:33:09;100354.31;;;10.79;69.83
68822;BME280;55834;50.870;4.606;2023-11-19T02:35:35;100347.94;;;11.10;68.19
68822;BME280;55834;50.870;4.606;2023-11-19T02:38:00;100353.84;;;10.68;68.99
68822;BME280;55834;50.870;4.606;2023-11-19T02:40:26;100369.88;;;10.87;68.66
68822;BME280;55834;50.870;4.606;2023-11-19T02:42:54;100379.78;;;10.55;68.20
68822;BME280;55834;50.870;4.606;2023-11-19T02:45:25;100362.59;;;10.94;67.00
68822;BME280;55834;50.870;4.606;2023-11-19T02:47:51;100369.16;;;11.07;67.57
68822;BME280;55834;50.870;4.606;2023-11-19T02:50:18;100366.38;;;10.87;68.29
68822;BME280;55834;50.870;4.606;2023-11-19T02:52:51;100369.13;;;10.58;69.23
68822;BME280;55834;50.870;4.606;2023-11-19T02:55:16;100350.75;;;10.55;68.37
68822;BME280;55834;50.870;4.606;2023-11-19T02:57:43;100349.47;;;10.67;69.42
68822;BME280;55834;50.870;4.606;2023-11-19T03:00:17;100351.19;;;10.68;69.37
68822;BME280;55834;50.870;4.606;2023-11-19T03:02:44;100354.75;;;10.14;71.02
68822;BME280;55834;50.870;4.606;2023-11-19T03:05:12;100352.81;;;10.46;70.65
68822;BME280;55834;50.870;4.606;2023-11-19T03:07:43;100335.91;;;11.01;68.79
68822;BME280;55834;50.870;4.606;2023-11-19T03:10:12;100338.91;;;10.67;69.12
68822;BME280;55834;50.870;4.606;2023-11-19T03:12:39;100351.19;;;10.68;67.86
68822;BME280;55834;50.870;4.606;2023-11-19T03:15:06;100337.72;;;10.76;67.23
68822;BME280;55834;50.870;4.606;2023-11-19T03:17:32;100326.88;;;10.58;66.91
68822;BME280;55834;50.870;4.606;2023-11-19T03:19:57;100318.47;;;10.72;66.77
68822;BME280;55834;50.870;4.606;2023-11-19T03:22:23;100322.47;;;10.59;67.10
68822;BME280;55834;50.870;4.606;2023-11-19T03:24:51;100331.88;;;10.14;67.85
68822;BME280;55834;50.870;4.606;2023-11-19T03:27:16;100323.53;;;10.27;68.57
68822;BME280;55834;50.870;4.606;2023-11-19T03:29:41;100326.13;;;10.28;68.34
68822;BME280;55834;50.870;4.606;2023-11-19T03:32:07;100332.09;;;10.07;68.91
68822;BME280;55834;50.870;4.606;2023-11-19T03:34:32;100339.69;;;9.89;68.88
68822;BME280;55834;50.870;4.606;2023-11-19T03:36:58;100353.94;;;9.84;69.26
68822;BME280;55834;50.870;4.606;2023-11-19T03:39:23;100329.09;;;10.44;67.67
68822;BME280;55834;50.870;4.606;2023-11-19T03:41:50;100331.63;;;10.74;67.07
68822;BME280;55834;50.870;4.606;2023-11-19T03:44:15;100339.91;;;9.83;68.62
68822;BME280;55834;50.870;4.606;2023-11-19T03:46:41;100349.03;;;10.28;67.51
68822;BME280;55834;50.870;4.606;2023-11-19T03:49:07;100341.53;;;10.67;65.85
68822;BME280;55834;50.870;4.606;2023-11-19T03:51:32;100334.06;;;10.55;66.26
68822;BME280;55834;50.870;4.606;2023-11-19T03:53:59;100347.28;;;10.53;65.89
68822;BME280;55834;50.870;4.606;2023-11-19T03:56:24;100359.28;;;10.37;66.70
68822;BME280;55834;50.870;4.606;2023-11-19T03:58:49;100342.72;;;10.05;67.00
68822;BME280;55834;50.870;4.606;2023-11-19T04:01:15;100365.94;;;10.49;66.97
68822;BME280;55834;50.870;4.606;2023-11-19T04:03:40;100357.28;;;10.44;66.63
68822;BME280;55834;50.870;4.606;2023-11-19T04:06:06;100375.59;;;10.75;65.63
68822;BME280;55834;50.870;4.606;2023-11-19T04:08:31;100377.16;;;10.01;67.07
68822;BME280;55834;50.870;4.606;2023-11-19T04:10:57;100374.16;;;9.55;67.87
68822;BME280;55834;50.870;4.606;2023-11-19T04:13:22;100369.50;;;9.93;67.82
68822;BME280;55834;50.870;4.606;2023-11-19T04:15:50;100369.41;;;9.66;67.99
68822;BME280;55834;50.870;4.606;2023-11-19T04:18:15;100380.13;;;9.62;67.59
68822;BME280;55834;50.870;4.606;2023-11-19T04:20:41;100374.94;;;9.87;67.56
68822;BME280;55834;50.870;4.606;2023-11-19T04:23:08;100385.31;;;9.93;67.49
68822;BME280;55834;50.870;4.606;2023-11-19T04:25:35;100387.44;;;9.82;67.07
68822;BME280;55834;50.870;4.606;2023-11-19T04:28:00;100389.56;;;9.97;68.17
68822;BME280;55834;50.870;4.606;2023-11-19T04:30:25;100379.06;;;9.95;68.37
68822;BME280;55834;50.870;4.606;2023-11-19T04:32:51;100366.06;;;9.89;68.02
68822;BME280;55834;50.870;4.606;2023-11-19T04:35:16;100371.59;;;9.52;69.14
68822;BME280;55834;50.870;4.606;2023-11-19T04:37:42;100376.53;;;9.64;68.15
68822;BME280;55834;50.870;4.606;2023-11-19T04:40:09;100386.09;;;9.97;67.51
68822;BME280;55834;50.870;4.606;2023-11-19T04:42:35;100391.25;;;9.71;67.69
68822;BME280;55834;50.870;4.606;2023-11-19T04:45:00;100390.25;;;9.76;67.30
68822;BME280;55834;50.870;4.606;2023-11-19T04:47:25;100383.28;;;9.73;67.15
68822;BME280;55834;50.870;4.606;2023-11-19T04:49:51;100401.47;;;9.53;67.70
68822;BME280;55834;50.870;4.606;2023-11-19T04:52:16;100403.69;;;9.66;66.80
68822;BME280;55834;50.870;4.606;2023-11-19T04:54:42;100411.94;;;9.56;66.60
68822;BME280;55834;50.870;4.606;2023-11-19T04:57:08;100402.34;;;9.53;67.05
68822;BME280;55834;50.870;4.606;2023-11-19T04:59:37;100394.03;;;9.67;66.94
68822;BME280;55834;50.870;4.606;2023-11-19T05:02:03;100393.81;;;10.01;65.54
68822;BME280;55834;50.870;4.606;2023-11-19T05:04:29;100405.53;;;10.49;64.38
68822;BME280;55834;50.870;4.606;2023-11-19T05:06:54;100399.81;;;10.34;63.61
68822;BME280;55834;50.870;4.606;2023-11-19T05:09:20;100405.13;;;10.33;64.38
68822;BME280;55834;50.870;4.606;2023-11-19T05:11:45;100404.03;;;10.67;63.08
68822;BME280;55834;50.870;4.606;2023-11-19T05:14:11;100416.22;;;10.16;63.84
68822;BME280;55834;50.870;4.606;2023-11-19T05:16:39;100408.88;;;9.99;66.50
68822;BME280;55834;50.870;4.606;2023-11-19T05:19:04;100407.06;;;10.28;65.17
68822;BME280;55834;50.870;4.606;2023-11-19T05:21:30;100402.75;;;10.25;64.16
68822;BME280;55834;50.870;4.606;2023-11-19T05:23:55;100402.63;;;10.02;65.38
68822;BME280;55834;50.870;4.606;2023-11-19T05:26:23;100406.38;;;10.49;64.42
68822;BME280;55834;50.870;4.606;2023-11-19T05:28:49;100402.34;;;9.53;66.36
68822;BME280;55834;50.870;4.606;2023-11-19T05:31:16;100403.94;;;10.43;64.75
68822;BME280;55834;50.870;4.606;2023-11-19T05:33:42;100388.75;;;10.23;64.05
68822;BME280;55834;50.870;4.606;2023-11-19T05:36:08;100402.94;;;9.32;65.95
68822;BME280;55834;50.870;4.606;2023-11-19T05:38:35;100414.47;;;9.88;65.60
68822;BME280;55834;50.870;4.606;2023-11-19T05:41:00;100403.81;;;9.91;64.53
68822;BME280;55834;50.870;4.606;2023-11-19T05:43:26;100397.06;;;9.83;65.44
68822;BME280;55834;50.870;4.606;2023-11-19T05:45:51;100404.97;;;10.11;63.96
68822;BME280;55834;50.870;4.606;2023-11-19T05:48:16;100412.69;;;9.89;64.63
68822;BME280;55834;50.870;4.606;2023-11-19T05:50:42;100417.47;;;10.04;63.62
68822;BME280;55834;50.870;4.606;2023-11-19T05:53:07;100422.91;;;10.00;64.07
68822;BME280;55834;50.870;4.606;2023-11-19T05:55:36;100434.44;;;9.95;63.53
68822;BME280;55834;50.870;4.606;2023-11-19T05:58:02;100425.19;;;9.82;63.21
68822;BME280;55834;50.870;4.606;2023-11-19T06:00:29;100430.47;;;9.20;65.26
68822;BME280;55834;50.870;4.606;2023-11-19T06:02:55;100410.97;;;9.88;63.15
68822;BME280;55834;50.870;4.606;2023-11-19T06:05:21;100402.28;;;9.55;63.94
68822;BME280;55834;50.870;4.606;2023-11-19T06:07:46;100407.50;;;10.14;63.10
68822;BME280;55834;50.870;4.606;2023-11-19T06:10:11;100401.59;;;10.06;62.26
68822;BME280;55834;50.870;4.606;2023-11-19T06:12:40;100419.97;;;10.09;62.00
68822;BME280;55834;50.870;4.606;2023-11-19T06:15:07;100429.22;;;10.50;61.68
68822;BME280;55834;50.870;4.606;2023-11-19T06:17:33;100421.88;;;10.04;62.69
68822;BME280;55834;50.870;4.606;2023-11-19T06:19:59;100424.53;;;10.60;61.34
68822;BME280;55834;50.870;4.606;2023-11-19T06:22:24;100426.00;;;10.69;60.62
68822;BME280;55834;50.870;4.606;2023-11-19T06:24:50;100430.13;;;10.51;60.36
68822;BME280;55834;50.870;4.606;2023-11-19T06:27:15;100430.63;;;10.34;61.84
68822;BME280;55834;50.870;4.606;2023-11-19T06:29:41;100435.31;;;10.24;62.00
68822;BME280;55834;50.870;4.606;2023-11-19T06:32:06;100424.63;;;10.01;63.95
68822;BME280;55834;50.870;4.606;2023-11-19T06:34:33;100429.59;;;10.10;63.29
68822;BME280;55834;50.870;4.606;2023-11-19T06:36:59;100435.13;;;10.30;62.58
68822;BME280;55834;50.870;4.606;2023-11-19T06:39:24;100435.06;;;10.04;63.11
68822;BME280;55834;50.870;4.606;2023-11-19T06:41:50;100425.91;;;9.58;64.15
68822;BME280;55834;50.870;4.606;2023-11-19T06:44:15;100423.47;;;9.52;64.69
68822;BME280;55834;50.870;4.606;2023-11-19T06:46:41;100435.75;;;9.82;63.89
68822;BME280;55834;50.870;4.606;2023-11-19T06:49:06;100431.66;;;10.02;63.65
68822;BME280;55834;50.870;4.606;2023-11-19T06:51:34;100427.59;;;9.90;63.02
68822;BME280;55834;50.870;4.606;2023-11-19T06:54:00;100432.44;;;9.76;63.91
68822;BME280;55834;50.870;4.606;2023-11-19T06:56:26;100426.53;;;9.95;63.76
68822;BME280;55834;50.870;4.606;2023-11-19T06:58:52;100427.78;;;9.54;64.80
68822;BME280;55834;50.870;4.606;2023-11-19T07:01:18;100438.78;;;9.04;67.13
68822;BME280;55834;50.870;4.606;2023-11-19T07:03:46;100455.63;;;9.32;65.25
68822;BME280;55834;50.870;4.606;2023-11-19T07:06:12;100439.44;;;9.75;63.70
68822;BME280;55834;50.870;4.606;2023-11-19T07:08:38;100439.78;;;9.94;63.16
68822;BME280;55834;50.870;4.606;2023-11-19T07:11:04;100446.63;;;10.00;62.90
68822;BME280;55834;50.870;4.606;2023-11-19T07:13:29;100448.25;;;10.04;62.79
68822;BME280;55834;50.870;4.606;2023-11-19T07:15:58;100455.69;;;9.28;64.77
68822;BME280;55834;50.870;4.606;2023-11-19T07:18:23;100455.38;;;10.02;63.72
68822;BME280;55834;50.870;4.606;2023-11-19T07:20:49;100460.00;;;9.64;64.99
68822;BME280;55834;50.870;4.606;2023-11-19T07:23:14;100463.06;;;9.80;63.27
68822;BME280;55834;50.870;4.606;2023-11-19T07:25:43;100452.63;;;9.75;64.19
68822;BME280;55834;50.870;4.606;2023-11-19T07:28:10;100456.97;;;9.46;63.89
68822;BME280;55834;50.870;4.606;2023-11-19T07:30:35;100454.22;;;9.81;63.74
68822;BME280;55834;50.870;4.606;2023-11-19T07:33:01;100457.91;;;9.11;65.31
68822;BME280;55834;50.870;4.606;2023-11-19T07:35:29;100458.44;;;9.58;63.99
68822;BME280;55834;50.870;4.606;2023-11-19T07:37:56;100452.34;;;9.55;64.01
68822;BME280;55834;50.870;4.606;2023-11-19T07:40:21;100460.22;;;9.56;64.21
68822;BME280;55834;50.870;4.606;2023-11-19T07:42:46;100461.19;;;9.21;65.19
68822;BME280;55834;50.870;4.606;2023-11-19T07:45:12;100467.75;;;9.04;65.56
68822;BME280;55834;50.870;4.606;2023-11-19T07:47:37;100454.19;;;9.53;64.71
68822;BME280;55834;50.870;4.606;2023-11-19T07:50:03;100448.56;;;9.34;64.57
68822;BME280;55834;50.870;4.606;2023-11-19T07:52:29;100456.38;;;8.70;66.52
68822;BME280;55834;50.870;4.606;2023-11-19T07:54:54;100451.16;;;9.35;64.99
68822;BME280;55834;50.870;4.606;2023-11-19T07:57:20;100454.25;;;9.17;64.50
68822;BME280;55834;50.870;4.606;2023-11-19T07:59:46;100455.69;;;8.96;65.93
68822;BME280;55834;50.870;4.606;2023-11-19T08:02:11;100465.44;;;9.26;64.87
68822;BME280;55834;50.870;4.606;2023-11-19T08:04:37;100468.97;;;9.88;62.71
68822;BME280;55834;50.870;4.606;2023-11-19T08:07:05;100463.81;;;10.41;62.47
68822;BME280;55834;50.870;4.606;2023-11-19T08:09:30;100468.69;;;9.97;62.04
68822;BME280;55834;50.870;4.606;2023-11-19T08:11:56;100467.28;;;9.56;62.78
68822;BME280;55834;50.870;4.606;2023-11-19T08:14:21;100474.81;;;9.04;64.99
68822;BME280;55834;50.870;4.606;2023-11-19T08:16:46;100469.19;;;9.18;65.68
68822;BME280;55834;50.870;4.606;2023-11-19T08:19:12;100474.19;;;9.60;64.84
68822;BME280;55834;50.870;4.606;2023-11-19T08:21:37;100472.59;;;10.13;62.74
68822;BME280;55834;50.870;4.606;2023-11-19T08:24:03;100476.13;;;9.84;62.24
68822;BME280;55834;50.870;4.606;2023-11-19T08:26:28;100475.28;;;9.82;63.62
68822;BME280;55834;50.870;4.606;2023-11-19T08:28:54;100465.66;;;10.11;61.30
68822;BME280;55834;50.870;4.606;2023-11-19T08:31:19;100457.53;;;9.58;63.31
68822;BME280;55834;50.870;4.606;2023-11-19T08:33:45;100458.41;;;10.17;62.78
68822;BME280;55834;50.870;4.606;2023-11-19T08:36:15;100455.59;;;9.94;62.59
68822;BME280;55834;50.870;4.606;2023-11-19T08:38:41;100452.75;;;10.58;61.02
68822;BME280;55834;50.870;4.606;2023-11-19T08:41:07;100451.25;;;10.49;61.20
68822;BME280;55834;50.870;4.606;2023-11-19T08:43:32;100457.00;;;10.34;60.97
68822;BME280;55834;50.870;4.606;2023-11-19T08:45:58;100459.94;;;10.53;60.81
68822;BME280;55834;50.870;4.606;2023-11-19T08:48:23;100467.66;;;9.42;63.36
68822;BME280;55834;50.870;4.606;2023-11-19T08:50:49;100479.16;;;9.70;62.33
68822;BME280;55834;50.870;4.606;2023-11-19T08:53:15;100475.47;;;9.45;63.35
68822;BME280;55834;50.870;4.606;2023-11-19T08:55:40;100478.13;;;10.04;62.12
68822;BME280;55834;50.870;4.606;2023-11-19T08:58:06;100469.91;;;9.56;64.13
68822;BME280;55834;50.870;4.606;2023-11-19T09:00:31;100479.19;;;9.69;63.93
68822;BME280;55834;50.870;4.606;2023-11-19T09:02:57;100483.03;;;9.87;64.00
68822;BME280;55834;50.870;4.606;2023-11-19T09:05:23;100481.75;;;10.02;64.24
68822;BME280;55834;50.870;4.606;2023-11-19T09:07:48;100492.31;;;9.39;67.13
68822;BME280;55834;50.870;4.606;2023-11-19T09:10:15;100481.81;;;9.38;66.27
68822;BME280;55834;50.870;4.606;2023-11-19T09:12:41;100470.66;;;9.90;65.52
68822;BME280;55834;50.870;4.606;2023-11-19T09:15:06;100476.97;;;9.85;65.79
68822;BME280;55834;50.870;4.606;2023-11-19T09:17:32;100473.59;;;10.09;64.50
68822;BME280;55834;50.870;4.606;2023-11-19T09:19:57;100463.56;;;10.21;63.22
68822;BME280;55834;50.870;4.606;2023-11-19T09:22:22;100471.19;;;9.72;63.11
68822;BME280;55834;50.870;4.606;2023-11-19T09:24:48;100462.69;;;9.62;62.54
68822;BME280;55834;50.870;4.606;2023-11-19T09:27:14;100461.78;;;9.63;62.26
68822;BME280;55834;50.870;4.606;2023-11-19T09:29:39;100463.69;;;9.88;62.84
68822;BME280;55834;50.870;4.606;2023-11-19T09:32:05;100463.34;;;9.70;62.47
68822;BME280;55834;50.870;4.606;2023-11-19T09:34:31;100474.47;;;10.38;62.41
68822;BME280;55834;50.870;4.606;2023-11-19T09:36:57;100475.19;;;9.56;62.65
68822;BME280;55834;50.870;4.606;2023-11-19T09:39:22;100472.19;;;10.55;61.94
68822;BME280;55834;50.870;4.606;2023-11-19T09:41:47;100470.25;;;10.87;60.41
68822;BME280;55834;50.870;4.606;2023-11-19T09:44:13;100470.84;;;10.12;62.17
68822;BME280;55834;50.870;4.606;2023-11-19T09:46:41;100474.81;;;9.98;62.60
68822;BME280;55834;50.870;4.606;2023-11-19T09:49:06;100477.94;;;9.82;63.00
68822;BME280;55834;50.870;4.606;2023-11-19T09:51:35;100462.56;;;9.97;63.32
68822;BME280;55834;50.870;4.606;2023-11-19T09:54:00;100464.97;;;9.75;63.91
68822;BME280;55834;50.870;4.606;2023-11-19T09:56:26;100452.81;;;9.99;63.31
68822;BME280;55834;50.870;4.606;2023-11-19T09:58:54;100463.47;;;9.66;63.65
68822;BME280;55834;50.870;4.606;2023-11-19T10:01:20;100462.63;;;9.64;63.61
68822;BME280;55834;50.870;4.606;2023-11-19T10:03:47;100467.84;;;9.97;62.92
68822;BME280;55834;50.870;4.606;2023-11-19T10:06:12;100466.28;;;9.89;63.11
68822;BME280;55834;50.870;4.606;2023-11-19T10:08:39;100470.06;;;10.67;61.89
68822;BME280;55834;50.870;4.606;2023-11-19T10:11:06;100466.59;;;10.65;60.79
68822;BME280;55834;50.870;4.606;2023-11-19T10:13:31;100466.78;;;10.85;61.32
68822;BME280;55834;50.870;4.606;2023-11-19T10:16:04;100455.22;;;10.06;61.48
68822;BME280;55834;50.870;4.606;2023-11-19T10:18:29;100462.31;;;10.32;62.49
68822;BME280;55834;50.870;4.606;2023-11-19T10:20:55;100464.56;;;10.45;62.75
68822;BME280;55834;50.870;4.606;2023-11-19T10:23:21;100463.81;;;10.69;60.83
68822;BME280;55834;50.870;4.606;2023-11-19T10:25:46;100464.66;;;10.70;60.74
68822;BME280;55834;50.870;4.606;2023-11-19T10:28:15;100464.81;;;10.65;61.47
68822;BME280;55834;50.870;4.606;2023-11-19T10:30:41;100470.88;;;10.94;60.16
68822;BME280;55834;50.870;4.606;2023-11-19T10:33:07;100471.06;;;10.34;61.03
68822;BME280;55834;50.870;4.606;2023-11-19T10:35:36;100467.09;;;10.49;62.27
68822;BME280;55834;50.870;4.606;2023-11-19T10:38:22;100458.13;;;11.06;60.47
68822;BME280;55834;50.870;4.606;2023-11-19T10:40:48;100457.28;;;11.55;59.79
68822;BME280;55834;50.870;4.606;2023-11-19T10:43:14;100470.69;;;11.50;59.01
68822;BME280;55834;50.870;4.606;2023-11-19T10:45:39;100451.31;;;10.74;59.98
68822;BME280;55834;50.870;4.606;2023-11-19T10:48:06;100443.38;;;11.01;59.94
68822;BME280;55834;50.870;4.606;2023-11-19T10:50:36;100464.72;;;10.40;61.23
68822;BME280;55834;50.870;4.606;2023-11-19T10:53:02;100462.66;;;10.22;61.57
68822;BME280;55834;50.870;4.606;2023-11-19T10:55:35;100455.03;;;10.40;62.18
68822;BME280;55834;50.870;4.606;2023-11-19T10:58:05;100450.84;;;10.33;62.55
68822;BME280;55834;50.870;4.606;2023-11-19T11:00:48;100447.88;;;9.88;63.52
68822;BME280;55834;50.870;4.606;2023-11-19T11:03:21;100443.44;;;10.45;61.35
68822;BME280;55834;50.870;4.606;2023-11-19T11:05:48;100447.34;;;10.61;61.29
68822;BME280;55834;50.870;4.606;2023-11-19T11:08:14;100450.19;;;10.81;60.46
68822;BME280;55834;50.870;4.606;2023-11-19T11:10:45;100433.66;;;11.26;59.56
68822;BME280;55834;50.870;4.606;2023-11-19T11:13:11;100431.72;;;10.55;60.72
68822;BME280;55834;50.870;4.606;2023-11-19T11:15:38;100435.59;;;10.15;61.81
68822;BME280;55834;50.870;4.606;2023-11-19T11:18:08;100447.81;;;10.99;60.24
68822;BME280;55834;50.870;4.606;2023-11-19T11:20:34;100439.69;;;10.53;59.88
68822;BME280;55834;50.870;4.606;2023-11-19T11:25:42;100427.81;;;10.67;59.70
68822;BME280;55834;50.870;4.606;2023-11-19T11:28:24;100418.44;;;10.56;59.54
68822;BME280;55834;50.870;4.606;2023-11-19T11:36:20;100415.63;;;11.38;58.53
68822;BME280;55834;50.870;4.606;2023-11-19T11:38:48;100434.00;;;10.66;60.36
68822;BME280;55834;50.870;4.606;2023-11-19T11:41:22;100423.50;;;10.64;61.13
68822;BME280;55834;50.870;4.606;2023-11-19T11:43:52;100428.56;;;10.15;62.03
68822;BME280;55834;50.870;4.606;2023-11-19T11:49:01;100400.31;;;11.46;60.20
68822;BME280;55834;50.870;4.606;2023-11-19T11:54:30;100395.84;;;10.99;59.75
68822;BME280;55834;50.870;4.606;2023-11-19T11:59:36;100370.97;;;11.06;59.50
68822;BME280;55834;50.870;4.606;2023-11-19T12:02:03;100368.16;;;10.86;59.76
68822;BME280;55834;50.870;4.606;2023-11-19T12:04:28;100367.31;;;10.86;59.35
68822;BME280;55834;50.870;4.606;2023-11-19T12:07:07;100382.13;;;11.15;58.85
68822;BME280;55834;50.870;4.606;2023-11-19T12:09:36;100387.16;;;10.97;59.00
68822;BME280;55834;50.870;4.606;2023-11-19T12:12:27;100386.94;;;11.74;57.60
68822;BME280;55834;50.870;4.606;2023-11-19T12:15:00;100387.63;;;11.56;57.90
68822;BME280;55834;50.870;4.606;2023-11-19T12:20:01;100377.69;;;11.39;57.27
68822;BME280;55834;50.870;4.606;2023-11-19T12:22:26;100386.59;;;11.13;57.44
68822;BME280;55834;50.870;4.606;2023-11-19T12:24:55;100392.63;;;11.16;59.81
68822;BME280;55834;50.870;4.606;2023-11-19T12:27:21;100394.38;;;10.92;58.65
68822;BME280;55834;50.870;4.606;2023-11-19T12:29:51;100388.16;;;10.68;59.43
68822;BME280;55834;50.870;4.606;2023-11-19T12:32:17;100404.22;;;10.34;59.90
68822;BME280;55834;50.870;4.606;2023-11-19T12:34:42;100407.34;;;10.18;61.62
68822;BME280;55834;50.870;4.606;2023-11-19T12:37:09;100403.38;;;10.05;61.86
68822;BME280;55834;50.870;4.606;2023-11-19T12:39:35;100400.38;;;10.16;62.44
68822;BME280;55834;50.870;4.606;2023-11-19T12:42:00;100398.22;;;10.02;62.89
68822;BME280;55834;50.870;4.606;2023-11-19T12:44:26;100403.22;;;10.38;61.33
68822;BME280;55834;50.870;4.606;2023-11-19T12:47:05;100402.06;;;10.73;60.60
68822;BME280;55834;50.870;4.606;2023-11-19T12:49:31;100397.06;;;10.11;61.57
68822;BME280;55834;50.870;4.606;2023-11-19T12:51:57;100393.31;;;10.45;61.20
68822;BME280;55834;50.870;4.606;2023-11-19T12:54:35;100386.72;;;10.59;60.77
68822;BME280;55834;50.870;4.606;2023-11-19T12:57:02;100389.09;;;10.39;60.61
68822;BME280;55834;50.870;4.606;2023-11-19T12:59:28;100400.47;;;10.41;60.29
68822;BME280;55834;50.870;4.606;2023-11-19T13:01:59;100394.94;;;10.22;61.08
68822;BME280;55834;50.870;4.606;2023-11-19T13:04:29;100387.47;;;10.63;60.41
68822;BME280;55834;50.870;4.606;2023-11-19T13:06:58;100376.09;;;10.86;59.79
68822;BME280;55834;50.870;4.606;2023-11-19T13:09:27;100387.03;;;10.75;60.46
68822;BME280;55834;50.870;4.606;2023-11-19T13:11:54;100378.22;;;11.00;58.27